sensor_id;sensor_type;location;lat;lon;timestamp;temperature;humidity
30097;DHT22;16915;51.466;3.610;2024-02-28T00:01:20;5.20;99.90
30097;DHT22;16915;51.466;3.610;2024-02-28T00:03:46;5.10;99.90
30097;DHT22;16915;51.466;3.610;2024-02-28T00:06:12;5.00;99.90
30097;DHT22;16915;51.466;3.610;2024-02-28T00:08:38;5.00;99.90
30097;DHT22;16915;51.466;3.610;2024-02-28T00:11:03;4.90;99.90
30097;DHT22;16915;51.466;3.610;2024-02-28T00:13:29;4.80;99.90
30097;DHT22;16915;51.466;3.610;2024-02-28T00:15:54;4.80;99.90
30097;DHT22;16915;51.466;3.610;2024-02-28T00:18:20;4.70;99.90
30097;DHT22;16915;51.466;3.610;2024-02-28T00:20:45;4.60;99.90
30097;DHT22;16915;51.466;3.610;2024-02-28T00:23:11;4.50;99.90
30097;DHT22;16915;51.466;3.610;2024-02-28T00:25:37;4.50;99.90
30097;DHT22;16915;51.466;3.610;2024-02-28T00:28:03;4.50;99.90
30097;DHT22;16915;51.466;3.610;2024-02-28T00:30:28;4.50;99.90
30097;DHT22;16915;51.466;3.610;2024-02-28T00:32:54;4.40;99.90
30097;DHT22;16915;51.466;3.610;2024-02-28T00:35:20;4.50;99.90
30097;DHT22;16915;51.466;3.610;2024-02-28T00:37:46;4.40;99.90
30097;DHT22;16915;51.466;3.610;2024-02-28T00:40:12;4.40;99.90
30097;DHT22;16915;51.466;3.610;2024-02-28T00:42:37;4.50;99.90
30097;DHT22;16915;51.466;3.610;2024-02-28T00:45:03;4.40;99.90
30097;DHT22;16915;51.466;3.610;2024-02-28T00:47:29;4.40;99.90
30097;DHT22;16915;51.466;3.610;2024-02-28T00:49:54;4.40;99.90
30097;DHT22;16915;51.466;3.610;2024-02-28T00:52:20;4.40;99.90
30097;DHT22;16915;51.466;3.610;2024-02-28T00:54:45;4.40;99.90
30097;DHT22;16915;51.466;3.610;2024-02-28T00:57:11;4.40;99.90
30097;DHT22;16915;51.466;3.610;2024-02-28T00:59:36;4.40;99.90
30097;DHT22;16915;51.466;3.610;2024-02-28T01:02:02;4.40;99.90
30097;DHT22;16915;51.466;3.610;2024-02-28T01:04:28;4.40;99.90
30097;DHT22;16915;51.466;3.610;2024-02-28T01:06:54;4.40;99.90
30097;DHT22;16915;51.466;3.610;2024-02-28T01:09:21;4.30;99.90
30097;DHT22;16915;51.466;3.610;2024-02-28T01:11:47;4.30;99.90
30097;DHT22;16915;51.466;3.610;2024-02-28T01:14:12;4.30;99.90
30097;DHT22;16915;51.466;3.610;2024-02-28T01:16:38;4.20;99.90
30097;DHT22;16915;51.466;3.610;2024-02-28T01:19:03;4.20;99.90
30097;DHT22;16915;51.466;3.610;2024-02-28T01:21:29;4.20;99.90
30097;DHT22;16915;51.466;3.610;2024-02-28T01:23:54;4.20;99.90
30097;DHT22;16915;51.466;3.610;2024-02-28T01:26:20;4.30;99.90
30097;DHT22;16915;51.466;3.610;2024-02-28T01:28:47;4.20;99.90
30097;DHT22;16915;51.466;3.610;2024-02-28T01:31:14;4.20;99.90
30097;DHT22;16915;51.466;3.610;2024-02-28T01:33:39;4.20;99.90
30097;DHT22;16915;51.466;3.610;2024-02-28T01:36:09;4.20;99.90
30097;DHT22;16915;51.466;3.610;2024-02-28T01:38:34;4.20;99.90
30097;DHT22;16915;51.466;3.610;2024-02-28T01:41:00;4.20;99.90
30097;DHT22;16915;51.466;3.610;2024-02-28T01:43:26;4.10;99.90
30097;DHT22;16915;51.466;3.610;2024-02-28T01:45:51;4.10;99.90
30097;DHT22;16915;51.466;3.610;2024-02-28T01:48:17;4.10;99.90
30097;DHT22;16915;51.466;3.610;2024-02-28T01:50:43;4.10;99.90
30097;DHT22;16915;51.466;3.610;2024-02-28T01:53:10;4.10;99.90
30097;DHT22;16915;51.466;3.610;2024-02-28T01:55:37;4.00;99.90
30097;DHT22;16915;51.466;3.610;2024-02-28T01:58:04;4.10;99.90
30097;DHT22;16915;51.466;3.610;2024-02-28T02:00:33;4.10;99.90
30097;DHT22;16915;51.466;3.610;2024-02-28T02:03:00;4.00;99.90
30097;DHT22;16915;51.466;3.610;2024-02-28T02:05:26;3.90;99.90
30097;DHT22;16915;51.466;3.610;2024-02-28T02:07:51;3.90;99.90
30097;DHT22;16915;51.466;3.610;2024-02-28T02:10:17;3.80;99.90
30097;DHT22;16915;51.466;3.610;2024-02-28T02:12:43;3.80;99.90
30097;DHT22;16915;51.466;3.610;2024-02-28T02:15:08;3.80;99.90
30097;DHT22;16915;51.466;3.610;2024-02-28T02:17:34;3.80;99.90
30097;DHT22;16915;51.466;3.610;2024-02-28T02:20:00;3.80;99.90
30097;DHT22;16915;51.466;3.610;2024-02-28T02:22:32;3.80;99.90
30097;DHT22;16915;51.466;3.610;2024-02-28T02:24:57;3.70;99.90
30097;DHT22;16915;51.466;3.610;2024-02-28T02:27:24;3.70;99.90
30097;DHT22;16915;51.466;3.610;2024-02-28T02:29:51;3.70;99.90
30097;DHT22;16915;51.466;3.610;2024-02-28T02:32:16;3.70;99.90
30097;DHT22;16915;51.466;3.610;2024-02-28T02:34:42;3.80;99.90
30097;DHT22;16915;51.466;3.610;2024-02-28T02:37:08;3.80;99.90
30097;DHT22;16915;51.466;3.610;2024-02-28T02:39:34;3.90;99.90
30097;DHT22;16915;51.466;3.610;2024-02-28T02:42:00;3.90;99.90
30097;DHT22;16915;51.466;3.610;2024-02-28T02:44:25;3.90;99.90
30097;DHT22;16915;51.466;3.610;2024-02-28T02:46:51;4.00;99.90
30097;DHT22;16915;51.466;3.610;2024-02-28T02:49:16;4.00;99.90
30097;DHT22;16915;51.466;3.610;2024-02-28T02:51:44;4.10;99.90
30097;DHT22;16915;51.466;3.610;2024-02-28T02:54:09;4.10;99.90
30097;DHT22;16915;51.466;3.610;2024-02-28T02:56:35;4.20;99.90
30097;DHT22;16915;51.466;3.610;2024-02-28T02:59:01;4.30;99.90
30097;DHT22;16915;51.466;3.610;2024-02-28T03:01:27;4.50;99.90
30097;DHT22;16915;51.466;3.610;2024-02-28T03:03:52;4.60;99.90
30097;DHT22;16915;51.466;3.610;2024-02-28T03:06:18;4.80;99.90
30097;DHT22;16915;51.466;3.610;2024-02-28T03:08:43;4.90;99.90
30097;DHT22;16915;51.466;3.610;2024-02-28T03:11:09;4.90;99.90
30097;DHT22;16915;51.466;3.610;2024-02-28T03:13:34;4.90;99.90
30097;DHT22;16915;51.466;3.610;2024-02-28T03:16:00;4.90;99.90
30097;DHT22;16915;51.466;3.610;2024-02-28T03:18:25;5.00;99.90
30097;DHT22;16915;51.466;3.610;2024-02-28T03:20:51;5.00;99.90
30097;DHT22;16915;51.466;3.610;2024-02-28T03:23:17;4.90;99.90
30097;DHT22;16915;51.466;3.610;2024-02-28T03:25:42;4.90;99.90
30097;DHT22;16915;51.466;3.610;2024-02-28T03:28:08;4.90;99.90
30097;DHT22;16915;51.466;3.610;2024-02-28T03:30:33;4.90;99.90
30097;DHT22;16915;51.466;3.610;2024-02-28T03:32:59;4.80;99.90
30097;DHT22;16915;51.466;3.610;2024-02-28T03:35:24;4.80;99.90
30097;DHT22;16915;51.466;3.610;2024-02-28T03:37:50;4.80;99.90
30097;DHT22;16915;51.466;3.610;2024-02-28T03:40:15;4.90;99.90
30097;DHT22;16915;51.466;3.610;2024-02-28T03:42:41;4.90;99.90
30097;DHT22;16915;51.466;3.610;2024-02-28T03:45:07;4.90;99.90
30097;DHT22;16915;51.466;3.610;2024-02-28T03:47:32;4.90;99.90
30097;DHT22;16915;51.466;3.610;2024-02-28T03:49:58;4.90;99.90
30097;DHT22;16915;51.466;3.610;2024-02-28T03:52:24;4.80;99.90
30097;DHT22;16915;51.466;3.610;2024-02-28T03:54:50;4.80;99.90
30097;DHT22;16915;51.466;3.610;2024-02-28T03:57:16;4.80;99.90
30097;DHT22;16915;51.466;3.610;2024-02-28T03:59:41;4.80;99.90
30097;DHT22;16915;51.466;3.610;2024-02-28T04:02:07;4.70;99.90
30097;DHT22;16915;51.466;3.610;2024-02-28T04:04:32;4.70;99.90
30097;DHT22;16915;51.466;3.610;2024-02-28T04:06:58;4.70;99.90
30097;DHT22;16915;51.466;3.610;2024-02-28T04:09:23;4.70;99.90
30097;DHT22;16915;51.466;3.610;2024-02-28T04:11:49;4.70;99.90
30097;DHT22;16915;51.466;3.610;2024-02-28T04:14:14;4.70;99.90
30097;DHT22;16915;51.466;3.610;2024-02-28T04:16:43;4.60;99.90
30097;DHT22;16915;51.466;3.610;2024-02-28T04:19:10;4.60;99.90
30097;DHT22;16915;51.466;3.610;2024-02-28T04:21:36;4.50;99.90
30097;DHT22;16915;51.466;3.610;2024-02-28T04:24:02;4.40;99.90
30097;DHT22;16915;51.466;3.610;2024-02-28T04:26:28;4.30;99.90
30097;DHT22;16915;51.466;3.610;2024-02-28T04:28:54;4.20;99.90
30097;DHT22;16915;51.466;3.610;2024-02-28T04:31:20;4.20;99.90
30097;DHT22;16915;51.466;3.610;2024-02-28T04:33:46;4.10;99.90
30097;DHT22;16915;51.466;3.610;2024-02-28T04:36:11;4.10;99.90
30097;DHT22;16915;51.466;3.610;2024-02-28T04:38:37;4.10;99.90
30097;DHT22;16915;51.466;3.610;2024-02-28T04:41:02;4.10;99.90
30097;DHT22;16915;51.466;3.610;2024-02-28T04:43:28;4.20;99.90
30097;DHT22;16915;51.466;3.610;2024-02-28T04:45:54;4.30;99.90
30097;DHT22;16915;51.466;3.610;2024-02-28T04:48:19;4.30;99.90
30097;DHT22;16915;51.466;3.610;2024-02-28T04:50:45;4.40;99.90
30097;DHT22;16915;51.466;3.610;2024-02-28T04:53:10;4.50;99.90
30097;DHT22;16915;51.466;3.610;2024-02-28T04:55:36;4.40;99.90
30097;DHT22;16915;51.466;3.610;2024-02-28T04:58:01;4.50;99.90
30097;DHT22;16915;51.466;3.610;2024-02-28T05:00:27;4.50;99.90
30097;DHT22;16915;51.466;3.610;2024-02-28T05:02:53;4.50;99.90
30097;DHT22;16915;51.466;3.610;2024-02-28T05:05:18;4.50;99.90
30097;DHT22;16915;51.466;3.610;2024-02-28T05:07:44;4.60;99.90
30097;DHT22;16915;51.466;3.610;2024-02-28T05:10:09;4.70;99.90
30097;DHT22;16915;51.466;3.610;2024-02-28T05:12:35;4.70;99.90
30097;DHT22;16915;51.466;3.610;2024-02-28T05:15:01;4.90;99.90
30097;DHT22;16915;51.466;3.610;2024-02-28T05:17:26;4.90;99.90
30097;DHT22;16915;51.466;3.610;2024-02-28T05:19:52;4.90;99.90
30097;DHT22;16915;51.466;3.610;2024-02-28T05:22:18;4.90;99.90
30097;DHT22;16915;51.466;3.610;2024-02-28T05:24:46;5.00;99.90
30097;DHT22;16915;51.466;3.610;2024-02-28T05:27:12;5.00;99.90
30097;DHT22;16915;51.466;3.610;2024-02-28T05:29:37;5.10;99.90
30097;DHT22;16915;51.466;3.610;2024-02-28T05:32:03;5.10;99.90
30097;DHT22;16915;51.466;3.610;2024-02-28T05:34:29;5.10;99.90
30097;DHT22;16915;51.466;3.610;2024-02-28T05:36:55;5.20;99.90
30097;DHT22;16915;51.466;3.610;2024-02-28T05:39:20;5.20;99.90
30097;DHT22;16915;51.466;3.610;2024-02-28T05:41:46;5.30;99.90
30097;DHT22;16915;51.466;3.610;2024-02-28T05:44:12;5.30;99.90
30097;DHT22;16915;51.466;3.610;2024-02-28T05:46:37;5.30;99.90
30097;DHT22;16915;51.466;3.610;2024-02-28T05:49:04;5.30;99.90
30097;DHT22;16915;51.466;3.610;2024-02-28T05:51:29;5.30;99.90
30097;DHT22;16915;51.466;3.610;2024-02-28T05:53:55;5.30;99.90
30097;DHT22;16915;51.466;3.610;2024-02-28T05:56:21;5.40;99.90
30097;DHT22;16915;51.466;3.610;2024-02-28T05:58:48;5.40;99.90
30097;DHT22;16915;51.466;3.610;2024-02-28T06:01:15;5.40;99.90
30097;DHT22;16915;51.466;3.610;2024-02-28T06:03:42;5.50;99.90
30097;DHT22;16915;51.466;3.610;2024-02-28T06:06:08;5.50;99.90
30097;DHT22;16915;51.466;3.610;2024-02-28T06:08:35;5.50;99.90
30097;DHT22;16915;51.466;3.610;2024-02-28T06:11:02;5.60;99.90
30097;DHT22;16915;51.466;3.610;2024-02-28T06:13:28;5.60;99.90
30097;DHT22;16915;51.466;3.610;2024-02-28T06:15:55;5.60;99.90
30097;DHT22;16915;51.466;3.610;2024-02-28T06:18:20;5.60;99.90
30097;DHT22;16915;51.466;3.610;2024-02-28T06:20:48;5.60;99.90
30097;DHT22;16915;51.466;3.610;2024-02-28T06:23:13;5.70;99.90
30097;DHT22;16915;51.466;3.610;2024-02-28T06:25:39;5.70;99.90
30097;DHT22;16915;51.466;3.610;2024-02-28T06:28:05;5.70;99.90
30097;DHT22;16915;51.466;3.610;2024-02-28T06:30:32;5.80;99.90
30097;DHT22;16915;51.466;3.610;2024-02-28T06:33:01;5.80;99.90
30097;DHT22;16915;51.466;3.610;2024-02-28T06:35:27;5.80;99.90
30097;DHT22;16915;51.466;3.610;2024-02-28T06:37:52;5.80;99.90
30097;DHT22;16915;51.466;3.610;2024-02-28T06:40:18;5.80;99.90
30097;DHT22;16915;51.466;3.610;2024-02-28T06:42:44;5.80;99.90
30097;DHT22;16915;51.466;3.610;2024-02-28T06:45:10;5.90;99.90
30097;DHT22;16915;51.466;3.610;2024-02-28T06:47:35;5.90;99.90
30097;DHT22;16915;51.466;3.610;2024-02-28T06:50:03;5.90;99.90
30097;DHT22;16915;51.466;3.610;2024-02-28T06:52:29;5.80;99.90
30097;DHT22;16915;51.466;3.610;2024-02-28T06:54:55;5.80;99.90
30097;DHT22;16915;51.466;3.610;2024-02-28T06:57:21;5.80;99.90
30097;DHT22;16915;51.466;3.610;2024-02-28T06:59:46;5.80;99.90
30097;DHT22;16915;51.466;3.610;2024-02-28T07:02:12;5.80;99.90
30097;DHT22;16915;51.466;3.610;2024-02-28T07:04:41;5.80;99.90
30097;DHT22;16915;51.466;3.610;2024-02-28T07:07:07;5.70;99.90
30097;DHT22;16915;51.466;3.610;2024-02-28T07:09:33;5.80;99.90
30097;DHT22;16915;51.466;3.610;2024-02-28T07:12:01;5.80;99.90
30097;DHT22;16915;51.466;3.610;2024-02-28T07:14:27;5.80;99.90
30097;DHT22;16915;51.466;3.610;2024-02-28T07:16:52;5.80;99.90
30097;DHT22;16915;51.466;3.610;2024-02-28T07:19:18;5.80;99.90
30097;DHT22;16915;51.466;3.610;2024-02-28T07:21:44;5.80;99.90
30097;DHT22;16915;51.466;3.610;2024-02-28T07:24:10;5.90;99.90
30097;DHT22;16915;51.466;3.610;2024-02-28T07:26:36;5.90;99.90
30097;DHT22;16915;51.466;3.610;2024-02-28T07:29:01;5.90;99.90
30097;DHT22;16915;51.466;3.610;2024-02-28T07:31:27;6.00;99.90
30097;DHT22;16915;51.466;3.610;2024-02-28T07:33:52;6.00;99.90
30097;DHT22;16915;51.466;3.610;2024-02-28T07:36:18;6.00;99.90
30097;DHT22;16915;51.466;3.610;2024-02-28T07:38:44;6.10;99.90
30097;DHT22;16915;51.466;3.610;2024-02-28T07:41:10;6.10;99.90
30097;DHT22;16915;51.466;3.610;2024-02-28T07:43:36;6.10;99.90
30097;DHT22;16915;51.466;3.610;2024-02-28T07:46:08;6.10;99.90
30097;DHT22;16915;51.466;3.610;2024-02-28T07:48:34;6.20;99.90
30097;DHT22;16915;51.466;3.610;2024-02-28T07:50:59;6.20;99.90
30097;DHT22;16915;51.466;3.610;2024-02-28T07:53:26;6.10;99.90
30097;DHT22;16915;51.466;3.610;2024-02-28T07:55:52;6.10;99.90
30097;DHT22;16915;51.466;3.610;2024-02-28T07:58:17;6.10;99.90
30097;DHT22;16915;51.466;3.610;2024-02-28T08:00:43;6.10;99.90
30097;DHT22;16915;51.466;3.610;2024-02-28T08:03:09;6.10;99.90
30097;DHT22;16915;51.466;3.610;2024-02-28T08:05:35;6.10;99.90
30097;DHT22;16915;51.466;3.610;2024-02-28T08:08:05;6.10;99.90
30097;DHT22;16915;51.466;3.610;2024-02-28T08:10:31;6.10;99.90
30097;DHT22;16915;51.466;3.610;2024-02-28T08:12:56;6.10;99.90
30097;DHT22;16915;51.466;3.610;2024-02-28T08:15:22;6.20;99.90
30097;DHT22;16915;51.466;3.610;2024-02-28T08:17:48;6.20;99.90
30097;DHT22;16915;51.466;3.610;2024-02-28T08:20:13;6.30;99.90
30097;DHT22;16915;51.466;3.610;2024-02-28T08:22:39;6.20;99.90
30097;DHT22;16915;51.466;3.610;2024-02-28T08:25:05;6.20;99.90
30097;DHT22;16915;51.466;3.610;2024-02-28T08:27:31;6.30;99.90
30097;DHT22;16915;51.466;3.610;2024-02-28T08:29:56;6.30;99.90
30097;DHT22;16915;51.466;3.610;2024-02-28T08:32:22;6.30;99.90
30097;DHT22;16915;51.466;3.610;2024-02-28T08:34:48;6.30;99.90
30097;DHT22;16915;51.466;3.610;2024-02-28T08:37:14;6.30;99.90
30097;DHT22;16915;51.466;3.610;2024-02-28T08:39:40;6.30;99.90
30097;DHT22;16915;51.466;3.610;2024-02-28T08:42:06;6.40;99.90
30097;DHT22;16915;51.466;3.610;2024-02-28T08:44:31;6.40;99.90
30097;DHT22;16915;51.466;3.610;2024-02-28T08:46:57;6.40;99.90
30097;DHT22;16915;51.466;3.610;2024-02-28T08:49:22;6.50;99.90
30097;DHT22;16915;51.466;3.610;2024-02-28T08:51:48;6.50;99.90
30097;DHT22;16915;51.466;3.610;2024-02-28T08:54:14;6.60;99.90
30097;DHT22;16915;51.466;3.610;2024-02-28T08:56:39;6.60;99.90
30097;DHT22;16915;51.466;3.610;2024-02-28T08:59:05;6.70;99.90
30097;DHT22;16915;51.466;3.610;2024-02-28T09:01:30;6.70;99.90
30097;DHT22;16915;51.466;3.610;2024-02-28T09:03:56;6.70;99.90
30097;DHT22;16915;51.466;3.610;2024-02-28T09:06:21;6.80;99.90
30097;DHT22;16915;51.466;3.610;2024-02-28T09:08:47;6.80;99.90
30097;DHT22;16915;51.466;3.610;2024-02-28T09:11:13;6.90;99.90
30097;DHT22;16915;51.466;3.610;2024-02-28T09:13:38;7.00;99.90
30097;DHT22;16915;51.466;3.610;2024-02-28T09:16:04;7.00;99.90
30097;DHT22;16915;51.466;3.610;2024-02-28T09:18:30;7.10;99.90
30097;DHT22;16915;51.466;3.610;2024-02-28T09:20:55;7.20;99.90
30097;DHT22;16915;51.466;3.610;2024-02-28T09:23:21;7.20;99.90
30097;DHT22;16915;51.466;3.610;2024-02-28T09:25:46;7.30;99.90
30097;DHT22;16915;51.466;3.610;2024-02-28T09:28:12;7.40;99.90
30097;DHT22;16915;51.466;3.610;2024-02-28T09:30:39;7.40;99.90
30097;DHT22;16915;51.466;3.610;2024-02-28T09:33:06;7.50;99.90
30097;DHT22;16915;51.466;3.610;2024-02-28T09:35:31;7.50;99.90
30097;DHT22;16915;51.466;3.610;2024-02-28T09:37:57;7.60;99.90
30097;DHT22;16915;51.466;3.610;2024-02-28T09:40:22;7.60;99.90
30097;DHT22;16915;51.466;3.610;2024-02-28T09:43:00;7.60;99.90
30097;DHT22;16915;51.466;3.610;2024-02-28T09:45:26;7.50;99.90
30097;DHT22;16915;51.466;3.610;2024-02-28T09:47:52;7.60;99.90
30097;DHT22;16915;51.466;3.610;2024-02-28T09:50:18;7.50;99.90
30097;DHT22;16915;51.466;3.610;2024-02-28T09:52:45;7.50;99.90
30097;DHT22;16915;51.466;3.610;2024-02-28T09:55:10;7.50;99.90
30097;DHT22;16915;51.466;3.610;2024-02-28T09:57:36;7.50;99.90
30097;DHT22;16915;51.466;3.610;2024-02-28T10:00:03;7.60;99.90
30097;DHT22;16915;51.466;3.610;2024-02-28T10:02:30;7.60;99.90
30097;DHT22;16915;51.466;3.610;2024-02-28T10:04:56;7.70;99.90
30097;DHT22;16915;51.466;3.610;2024-02-28T10:07:25;7.70;99.90
30097;DHT22;16915;51.466;3.610;2024-02-28T10:09:51;7.80;99.90
30097;DHT22;16915;51.466;3.610;2024-02-28T10:12:17;7.80;99.90
30097;DHT22;16915;51.466;3.610;2024-02-28T10:14:43;7.90;99.90
30097;DHT22;16915;51.466;3.610;2024-02-28T10:17:09;8.00;99.90
30097;DHT22;16915;51.466;3.610;2024-02-28T10:19:35;8.00;99.90
30097;DHT22;16915;51.466;3.610;2024-02-28T10:22:00;8.00;99.90
30097;DHT22;16915;51.466;3.610;2024-02-28T10:24:26;8.10;99.90
30097;DHT22;16915;51.466;3.610;2024-02-28T10:26:52;8.20;99.90
30097;DHT22;16915;51.466;3.610;2024-02-28T10:29:23;8.20;99.90
30097;DHT22;16915;51.466;3.610;2024-02-28T10:31:55;8.20;99.90
30097;DHT22;16915;51.466;3.610;2024-02-28T10:34:21;8.20;99.90
30097;DHT22;16915;51.466;3.610;2024-02-28T10:36:47;8.20;99.90
30097;DHT22;16915;51.466;3.610;2024-02-28T10:39:13;8.20;99.90
30097;DHT22;16915;51.466;3.610;2024-02-28T10:41:39;8.30;99.90
30097;DHT22;16915;51.466;3.610;2024-02-28T10:44:05;8.30;99.90
30097;DHT22;16915;51.466;3.610;2024-02-28T10:46:31;8.40;99.90
30097;DHT22;16915;51.466;3.610;2024-02-28T10:48:57;8.50;99.90
30097;DHT22;16915;51.466;3.610;2024-02-28T10:51:26;8.50;99.90
30097;DHT22;16915;51.466;3.610;2024-02-28T10:54:12;8.60;99.90
30097;DHT22;16915;51.466;3.610;2024-02-28T10:56:39;8.60;99.90
30097;DHT22;16915;51.466;3.610;2024-02-28T10:59:07;8.70;99.90
30097;DHT22;16915;51.466;3.610;2024-02-28T11:01:35;8.70;99.90
30097;DHT22;16915;51.466;3.610;2024-02-28T11:04:02;8.70;99.90
30097;DHT22;16915;51.466;3.610;2024-02-28T11:06:27;8.70;99.90
30097;DHT22;16915;51.466;3.610;2024-02-28T11:08:53;8.70;99.90
30097;DHT22;16915;51.466;3.610;2024-02-28T11:11:20;8.70;99.90
30097;DHT22;16915;51.466;3.610;2024-02-28T11:13:54;8.80;99.90
30097;DHT22;16915;51.466;3.610;2024-02-28T11:16:31;8.80;99.90
30097;DHT22;16915;51.466;3.610;2024-02-28T11:18:57;8.80;99.90
30097;DHT22;16915;51.466;3.610;2024-02-28T11:21:24;8.90;99.90
30097;DHT22;16915;51.466;3.610;2024-02-28T11:24:01;8.80;99.90
30097;DHT22;16915;51.466;3.610;2024-02-28T11:26:28;8.80;99.90
30097;DHT22;16915;51.466;3.610;2024-02-28T11:28:55;8.80;99.90
30097;DHT22;16915;51.466;3.610;2024-02-28T11:31:21;8.70;99.90
30097;DHT22;16915;51.466;3.610;2024-02-28T11:33:46;8.70;99.90
30097;DHT22;16915;51.466;3.610;2024-02-28T11:36:12;8.70;99.90
30097;DHT22;16915;51.466;3.610;2024-02-28T11:38:39;8.80;99.90
30097;DHT22;16915;51.466;3.610;2024-02-28T11:41:05;8.90;99.90
30097;DHT22;16915;51.466;3.610;2024-02-28T11:43:32;8.90;99.90
30097;DHT22;16915;51.466;3.610;2024-02-28T11:45:58;8.90;99.90
30097;DHT22;16915;51.466;3.610;2024-02-28T11:48:25;9.00;99.90
30097;DHT22;16915;51.466;3.610;2024-02-28T11:50:52;9.00;99.90
30097;DHT22;16915;51.466;3.610;2024-02-28T11:53:18;9.00;99.90
30097;DHT22;16915;51.466;3.610;2024-02-28T11:55:45;9.10;99.90
30097;DHT22;16915;51.466;3.610;2024-02-28T11:58:13;9.20;99.90
30097;DHT22;16915;51.466;3.610;2024-02-28T12:00:49;9.20;99.90
30097;DHT22;16915;51.466;3.610;2024-02-28T12:03:19;9.30;99.90
30097;DHT22;16915;51.466;3.610;2024-02-28T12:05:45;9.40;99.90
30097;DHT22;16915;51.466;3.610;2024-02-28T12:08:11;9.40;99.90
30097;DHT22;16915;51.466;3.610;2024-02-28T12:10:37;9.30;99.90
30097;DHT22;16915;51.466;3.610;2024-02-28T12:13:02;9.30;99.90
30097;DHT22;16915;51.466;3.610;2024-02-28T12:15:29;9.20;99.90
30097;DHT22;16915;51.466;3.610;2024-02-28T12:17:55;9.10;99.90
30097;DHT22;16915;51.466;3.610;2024-02-28T12:20:20;9.10;99.90
30097;DHT22;16915;51.466;3.610;2024-02-28T12:22:46;9.10;99.90
30097;DHT22;16915;51.466;3.610;2024-02-28T12:25:11;9.00;99.90
30097;DHT22;16915;51.466;3.610;2024-02-28T12:27:37;9.00;99.90
30097;DHT22;16915;51.466;3.610;2024-02-28T12:30:03;8.90;99.90
30097;DHT22;16915;51.466;3.610;2024-02-28T12:32:28;8.90;99.90
30097;DHT22;16915;51.466;3.610;2024-02-28T12:34:54;8.90;99.90
30097;DHT22;16915;51.466;3.610;2024-02-28T12:37:19;8.90;99.90
30097;DHT22;16915;51.466;3.610;2024-02-28T12:39:45;8.90;99.90
30097;DHT22;16915;51.466;3.610;2024-02-28T12:42:12;8.80;99.90
30097;DHT22;16915;51.466;3.610;2024-02-28T12:44:38;8.90;99.90
30097;DHT22;16915;51.466;3.610;2024-02-28T12:47:06;8.80;99.90
30097;DHT22;16915;51.466;3.610;2024-02-28T12:49:32;8.80;99.90
30097;DHT22;16915;51.466;3.610;2024-02-28T12:51:57;8.80;99.90
30097;DHT22;16915;51.466;3.610;2024-02-28T12:54:23;8.80;99.90
30097;DHT22;16915;51.466;3.610;2024-02-28T12:56:48;8.80;99.90
30097;DHT22;16915;51.466;3.610;2024-02-28T12:59:14;8.80;99.90
30097;DHT22;16915;51.466;3.610;2024-02-28T13:01:41;8.80;99.90
30097;DHT22;16915;51.466;3.610;2024-02-28T13:04:06;8.90;99.90
30097;DHT22;16915;51.466;3.610;2024-02-28T13:06:32;9.10;99.90
30097;DHT22;16915;51.466;3.610;2024-02-28T13:08:57;9.20;99.90
30097;DHT22;16915;51.466;3.610;2024-02-28T13:11:24;9.20;99.90
30097;DHT22;16915;51.466;3.610;2024-02-28T13:13:51;9.20;99.90
30097;DHT22;16915;51.466;3.610;2024-02-28T13:16:17;9.20;99.90
30097;DHT22;16915;51.466;3.610;2024-02-28T13:18:43;9.20;99.90
30097;DHT22;16915;51.466;3.610;2024-02-28T13:21:12;9.30;99.90
30097;DHT22;16915;51.466;3.610;2024-02-28T13:23:38;9.30;99.90
30097;DHT22;16915;51.466;3.610;2024-02-28T13:26:07;9.40;99.90
30097;DHT22;16915;51.466;3.610;2024-02-28T13:28:33;9.50;99.90
30097;DHT22;16915;51.466;3.610;2024-02-28T13:31:01;9.50;99.90
30097;DHT22;16915;51.466;3.610;2024-02-28T13:33:27;9.60;99.90
30097;DHT22;16915;51.466;3.610;2024-02-28T13:35:53;9.60;99.90
30097;DHT22;16915;51.466;3.610;2024-02-28T13:38:19;9.80;99.90
30097;DHT22;16915;51.466;3.610;2024-02-28T13:40:46;9.90;99.90
30097;DHT22;16915;51.466;3.610;2024-02-28T13:43:12;9.90;99.90
30097;DHT22;16915;51.466;3.610;2024-02-28T13:45:46;9.90;99.90
30097;DHT22;16915;51.466;3.610;2024-02-28T13:48:17;9.90;99.90
30097;DHT22;16915;51.466;3.610;2024-02-28T13:50:47;9.90;99.90
30097;DHT22;16915;51.466;3.610;2024-02-28T13:53:13;9.90;99.90
30097;DHT22;16915;51.466;3.610;2024-02-28T13:55:40;9.90;99.90
30097;DHT22;16915;51.466;3.610;2024-02-28T13:58:06;9.90;99.90
30097;DHT22;16915;51.466;3.610;2024-02-28T14:00:32;9.90;99.90
30097;DHT22;16915;51.466;3.610;2024-02-28T14:03:00;10.00;99.90
30097;DHT22;16915;51.466;3.610;2024-02-28T14:05:25;9.90;99.90
30097;DHT22;16915;51.466;3.610;2024-02-28T14:07:51;9.90;99.90
30097;DHT22;16915;51.466;3.610;2024-02-28T14:10:16;9.90;99.90
30097;DHT22;16915;51.466;3.610;2024-02-28T14:12:42;9.90;99.90
30097;DHT22;16915;51.466;3.610;2024-02-28T14:15:08;9.90;99.90
30097;DHT22;16915;51.466;3.610;2024-02-28T14:17:36;9.80;99.90
30097;DHT22;16915;51.466;3.610;2024-02-28T14:20:02;9.80;99.90
30097;DHT22;16915;51.466;3.610;2024-02-28T14:22:27;9.80;99.90
30097;DHT22;16915;51.466;3.610;2024-02-28T14:24:53;9.80;99.90
30097;DHT22;16915;51.466;3.610;2024-02-28T14:27:18;9.70;99.90
30097;DHT22;16915;51.466;3.610;2024-02-28T14:29:45;9.70;99.90
30097;DHT22;16915;51.466;3.610;2024-02-28T14:32:11;9.70;99.90
30097;DHT22;16915;51.466;3.610;2024-02-28T14:34:37;9.70;99.90
30097;DHT22;16915;51.466;3.610;2024-02-28T14:37:02;9.70;99.90
30097;DHT22;16915;51.466;3.610;2024-02-28T14:39:29;9.70;99.90
30097;DHT22;16915;51.466;3.610;2024-02-28T14:41:55;9.60;99.90
30097;DHT22;16915;51.466;3.610;2024-02-28T14:44:20;9.50;99.90
30097;DHT22;16915;51.466;3.610;2024-02-28T14:46:46;9.50;99.90
30097;DHT22;16915;51.466;3.610;2024-02-28T14:49:11;9.40;99.90
30097;DHT22;16915;51.466;3.610;2024-02-28T14:51:37;9.40;99.90
30097;DHT22;16915;51.466;3.610;2024-02-28T14:54:03;9.40;99.90
30097;DHT22;16915;51.466;3.610;2024-02-28T14:56:28;9.50;99.90
30097;DHT22;16915;51.466;3.610;2024-02-28T14:58:55;9.50;99.90
30097;DHT22;16915;51.466;3.610;2024-02-28T15:01:21;9.50;99.90
30097;DHT22;16915;51.466;3.610;2024-02-28T15:03:47;9.60;99.90
30097;DHT22;16915;51.466;3.610;2024-02-28T15:06:14;9.60;99.90
30097;DHT22;16915;51.466;3.610;2024-02-28T15:08:39;9.60;99.90
30097;DHT22;16915;51.466;3.610;2024-02-28T15:11:05;9.60;99.90
30097;DHT22;16915;51.466;3.610;2024-02-28T15:13:31;9.60;99.90
30097;DHT22;16915;51.466;3.610;2024-02-28T15:15:56;9.60;99.90
30097;DHT22;16915;51.466;3.610;2024-02-28T15:18:22;9.60;99.90
30097;DHT22;16915;51.466;3.610;2024-02-28T15:20:48;9.60;99.90
30097;DHT22;16915;51.466;3.610;2024-02-28T15:23:14;9.60;99.90
30097;DHT22;16915;51.466;3.610;2024-02-28T15:25:39;9.50;99.90
30097;DHT22;16915;51.466;3.610;2024-02-28T15:28:05;9.50;99.90
30097;DHT22;16915;51.466;3.610;2024-02-28T15:30:31;9.50;99.90
30097;DHT22;16915;51.466;3.610;2024-02-28T15:32:56;9.40;99.90
30097;DHT22;16915;51.466;3.610;2024-02-28T15:35:22;9.40;99.90
30097;DHT22;16915;51.466;3.610;2024-02-28T15:37:49;9.30;99.90